createdAt,value
2022-10-28T00:04:36.879Z,18.13
2022-10-28T00:09:39.414Z,18.10
2022-10-28T00:14:42.106Z,18.67
2022-10-28T00:19:44.596Z,19.00
2022-10-28T00:24:47.053Z,16.50
2022-10-28T00:29:49.477Z,18.57
2022-10-28T00:34:51.864Z,14.87
2022-10-28T00:39:54.362Z,17.50
2022-10-28T00:45:02.027Z,14.77
2022-10-28T00:50:28.997Z,16.80
2022-10-28T00:55:33.065Z,17.10
2022-10-28T01:00:35.617Z,16.83
2022-10-28T01:05:42.305Z,18.57
2022-10-28T01:11:09.923Z,14.27
2022-10-28T01:16:27.755Z,18.40
2022-10-28T01:22:02.179Z,19.17
2022-10-28T01:27:45.981Z,20.80
2022-10-28T01:33:04.129Z,18.17
2022-10-28T01:38:35.113Z,21.10
2022-10-28T01:43:55.028Z,21.27
2022-10-28T01:49:02.505Z,23.70
2022-10-28T01:54:08.717Z,16.17
2022-10-28T01:59:15.123Z,19.17
2022-10-28T02:04:17.852Z,20.00
2022-10-28T02:09:24.304Z,25.97
2022-10-28T02:14:32.871Z,19.93
2022-10-28T02:20:04.561Z,24.30
2022-10-28T02:25:10.856Z,25.87
2022-10-28T02:30:25.469Z,26.90
2022-10-28T02:35:38.859Z,23.77
2022-10-28T02:40:46.227Z,24.93
2022-10-28T02:45:53.074Z,24.33
2022-10-28T02:51:00.695Z,25.03
2022-10-28T02:56:05.875Z,20.83
2022-10-28T03:01:08.444Z,21.17
2022-10-28T03:06:10.959Z,22.13
2022-10-28T03:11:13.489Z,25.30
2022-10-28T03:16:15.940Z,26.43
2022-10-28T03:21:18.436Z,27.37
2022-10-28T03:26:20.764Z,26.47
2022-10-28T03:31:23.216Z,22.73
2022-10-28T03:36:25.702Z,22.77
2022-10-28T03:41:28.192Z,20.97
2022-10-28T03:46:32.348Z,26.23
2022-10-28T03:51:37.676Z,27.90
2022-10-28T03:56:40.662Z,24.20
2022-10-28T04:01:43.175Z,21.43
2022-10-28T04:06:45.725Z,11.57
2022-10-28T04:11:49.692Z,23.63
2022-10-28T04:16:52.083Z,23.37
2022-10-28T04:21:54.790Z,23.17
2022-10-28T04:26:57.372Z,14.43
2022-10-28T04:31:59.731Z,24.13
2022-10-28T04:37:02.100Z,25.53
2022-10-28T04:42:04.538Z,19.30
2022-10-28T04:47:06.860Z,21.57
2022-10-28T04:52:12.020Z,15.43
2022-10-28T04:57:17.372Z,18.30
2022-10-28T05:02:21.976Z,23.03
2022-10-28T05:07:24.569Z,25.37
2022-10-28T05:12:27.002Z,24.67
2022-10-28T05:17:29.552Z,22.93
2022-10-28T05:22:32.076Z,25.37
2022-10-28T05:27:34.592Z,22.47
2022-10-28T05:32:37.684Z,18.00
2022-10-28T05:37:44.053Z,24.97
2022-10-28T05:42:46.871Z,18.30
2022-10-28T05:47:49.316Z,8.80
2022-10-28T05:52:54.099Z,22.77
2022-10-28T05:57:57.504Z,24.90
2022-10-28T06:03:10.539Z,23.20
2022-10-28T06:08:13.970Z,20.90
2022-10-28T06:13:15.270Z,23.23
2022-10-28T06:18:20.134Z,22.00
2022-10-28T06:23:24.641Z,21.87
2022-10-28T06:28:27.347Z,17.77
2022-10-28T06:33:31.864Z,23.10
2022-10-28T06:38:35.110Z,25.10
2022-10-28T06:43:38.254Z,21.13
2022-10-28T06:48:43.046Z,21.90
2022-10-28T06:53:52.764Z,18.87
2022-10-28T06:58:56.207Z,24.10
2022-10-28T07:03:59.406Z,22.50
2022-10-28T07:09:02.581Z,22.70
2022-10-28T07:14:05.356Z,16.20
2022-10-28T07:19:08.326Z,24.07
2022-10-28T07:24:10.913Z,17.43
2022-10-28T07:29:13.499Z,24.30
2022-10-28T07:34:16.101Z,19.10
2022-10-28T07:39:19.207Z,16.27
2022-10-28T07:44:21.777Z,17.27
2022-10-28T07:49:27.669Z,23.33
2022-10-28T07:54:34.005Z,19.83
2022-10-28T07:59:38.306Z,18.17
2022-10-28T08:04:41.585Z,25.63
2022-10-28T08:09:48.057Z,20.47
2022-10-28T08:15:23.002Z,21.40
2022-10-28T08:20:32.319Z,24.40
2022-10-28T08:25:36.069Z,19.07
2022-10-28T08:30:56.614Z,21.23
2022-10-28T08:36:15.838Z,18.47
2022-10-28T08:41:44.338Z,15.97
2022-10-28T08:47:01.558Z,13.40
2022-10-28T08:52:36.372Z,17.27
2022-10-28T08:57:52.321Z,16.17
2022-10-28T09:03:13.727Z,16.93
2022-10-28T09:08:22.669Z,17.73
2022-10-28T09:13:25.688Z,17.77
2022-10-28T09:18:37.230Z,19.17
2022-10-28T09:24:13.318Z,15.53
2022-10-28T09:29:15.697Z,13.53
2022-10-28T09:34:29.428Z,14.87
2022-10-28T09:39:43.940Z,10.37
2022-10-28T09:44:54.647Z,11.03
2022-10-28T09:50:02.150Z,12.33
2022-10-28T09:55:29.392Z,11.33
2022-10-28T10:00:32.476Z,13.33
2022-10-28T10:05:40.731Z,15.03
2022-10-28T10:10:57.089Z,13.60
2022-10-28T10:16:04.900Z,10.37
2022-10-28T10:21:07.343Z,11.73
2022-10-28T10:26:13.549Z,12.53
2022-10-28T10:31:29.812Z,9.80
2022-10-28T10:36:33.977Z,10.73
2022-10-28T10:41:44.262Z,10.23
2022-10-28T10:47:06.516Z,9.63
2022-10-28T10:52:21.531Z,10.77
2022-10-28T10:57:25.691Z,10.50
2022-10-28T11:02:41.744Z,9.20
2022-10-28T11:07:48.320Z,10.87
2022-10-28T11:12:56.799Z,10.97
2022-10-28T11:17:59.528Z,10.40
2022-10-28T11:23:14.035Z,9.33
2022-10-28T11:28:38.393Z,9.23
2022-10-28T11:34:05.048Z,10.27
2022-10-28T11:39:19.150Z,10.60
2022-10-28T11:44:51.093Z,8.90
2022-10-28T11:50:13.408Z,8.87
2022-10-28T11:55:33.881Z,10.03
2022-10-28T12:01:01.276Z,8.97
2022-10-28T12:06:18.133Z,9.83
2022-10-28T12:11:49.804Z,9.20
2022-10-28T12:17:30.571Z,9.77
2022-10-28T12:22:56.552Z,8.80
2022-10-28T12:28:03.859Z,9.13
2022-10-28T12:33:41.028Z,9.07
2022-10-28T12:38:49.627Z,8.23
2022-10-28T12:44:03.009Z,9.40
2022-10-28T12:49:13.257Z,9.50
2022-10-28T12:54:30.785Z,9.80
2022-10-28T12:59:38.705Z,9.57
2022-10-28T13:04:41.607Z,9.80
2022-10-28T13:10:05.295Z,8.50
2022-10-28T13:15:22.856Z,9.87
2022-10-28T13:20:39.114Z,9.57
2022-10-28T13:25:47.312Z,9.20
2022-10-28T13:30:59.273Z,8.57
2022-10-28T13:36:53.452Z,8.37
2022-10-28T13:42:14.969Z,9.07
2022-10-28T13:47:17.481Z,9.33
2022-10-28T13:52:21.469Z,9.10
2022-10-28T13:57:48.539Z,9.10
2022-10-28T14:02:55.898Z,10.80
2022-10-28T14:08:05.068Z,10.63
2022-10-28T14:24:07.633Z,10.33
2022-10-28T14:29:29.986Z,10.60
2022-10-28T14:34:43.126Z,9.83
2022-10-28T14:40:17.825Z,12.77
2022-10-28T14:45:40.843Z,13.33
2022-10-28T14:50:48.967Z,13.73
2022-10-28T14:56:16.759Z,16.40
2022-10-28T15:01:28.006Z,14.63
2022-10-28T15:06:41.724Z,13.83
2022-10-28T15:11:48.015Z,11.70
2022-10-28T15:16:52.045Z,12.13
2022-10-28T15:27:32.450Z,11.77
2022-10-28T15:32:35.832Z,12.03
2022-10-28T15:37:39.653Z,13.80
2022-10-28T15:42:51.685Z,11.80
2022-10-28T15:47:55.978Z,11.10
2022-10-28T15:53:08.428Z,10.67
2022-10-28T15:58:17.995Z,10.70
2022-10-28T16:03:45.696Z,12.33
2022-10-28T16:08:48.826Z,11.20
2022-10-28T16:13:51.302Z,12.97
2022-10-28T16:19:09.731Z,11.77
2022-10-28T16:24:13.381Z,12.17
2022-10-28T16:29:15.938Z,13.57
2022-10-28T16:34:18.424Z,14.53
2022-10-28T16:39:20.952Z,17.47
2022-10-28T16:44:27.108Z,16.90
2022-10-28T16:49:29.482Z,15.30
2022-10-28T16:54:32.029Z,17.47
2022-10-28T16:59:34.531Z,19.33
2022-10-28T17:04:37.060Z,16.07
2022-10-28T17:09:39.457Z,13.77
2022-10-28T17:14:42.170Z,13.30
2022-10-28T17:19:45.785Z,13.40
2022-10-28T17:24:48.476Z,13.33
2022-10-28T17:29:51.010Z,13.13
2022-10-28T17:34:53.534Z,13.47
2022-10-28T17:39:57.231Z,13.87
2022-10-28T17:44:59.849Z,15.63
2022-10-28T17:50:02.470Z,14.80
2022-10-28T17:55:05.370Z,15.20
2022-10-28T18:00:08.654Z,17.13
2022-10-28T18:05:14.121Z,14.93
2022-10-28T18:10:16.863Z,15.50
2022-10-28T18:15:19.302Z,15.53
2022-10-28T18:20:21.697Z,14.77
2022-10-28T18:25:24.363Z,14.97
2022-10-28T18:30:26.981Z,15.27
2022-10-28T18:35:29.781Z,15.30
2022-10-28T18:40:32.319Z,14.57
2022-10-28T18:45:34.774Z,14.60
2022-10-28T18:50:37.391Z,14.07
2022-10-28T18:55:39.925Z,13.00
2022-10-28T19:00:42.446Z,13.53
2022-10-28T19:05:45.033Z,13.63
2022-10-28T19:10:48.750Z,13.27
2022-10-28T19:15:51.459Z,22.37
2022-10-28T19:20:57.218Z,23.43
2022-10-28T19:26:00.473Z,24.63
2022-10-28T19:31:05.742Z,24.70
2022-10-28T19:36:14.409Z,23.00
2022-10-28T19:41:19.250Z,24.40
2022-10-28T19:46:22.263Z,25.77
2022-10-28T19:51:27.674Z,13.83
2022-10-28T19:56:33.745Z,15.30
2022-10-28T20:01:38.763Z,13.83
2022-10-28T20:06:41.648Z,18.43
2022-10-28T20:11:44.740Z,15.27
2022-10-28T20:16:48.875Z,16.40
2022-10-28T20:21:51.419Z,14.63
2022-10-28T20:26:53.913Z,12.20
2022-10-28T20:31:56.296Z,12.00
2022-10-28T20:36:58.916Z,13.00
2022-10-28T20:42:01.388Z,12.63
2022-10-28T20:47:03.847Z,15.03
2022-10-28T20:52:06.223Z,15.40
2022-10-28T20:57:08.616Z,14.70
2022-10-28T21:02:11.173Z,14.30
2022-10-28T21:07:13.796Z,16.37
2022-10-28T21:12:19.055Z,19.87
2022-10-28T21:17:27.733Z,18.07
2022-10-28T21:22:30.531Z,19.70
2022-10-28T21:27:34.326Z,18.67
2022-10-28T21:32:37.349Z,19.40
2022-10-28T21:37:39.853Z,19.27
2022-10-28T21:42:42.596Z,14.13
2022-10-28T21:47:45.121Z,12.47
2022-10-28T21:52:47.671Z,16.37
2022-10-28T21:57:50.219Z,10.33
2022-10-28T22:02:52.929Z,13.37
2022-10-28T22:07:55.874Z,13.43
2022-10-28T22:12:58.686Z,11.73
2022-10-28T22:18:01.182Z,11.00
2022-10-28T22:23:03.673Z,12.43
2022-10-28T22:28:06.105Z,10.43
2022-10-28T22:33:08.530Z,10.97
2022-10-28T22:38:10.936Z,14.50
2022-10-28T22:43:13.854Z,11.20
2022-10-28T22:48:16.316Z,11.13
2022-10-28T22:53:19.563Z,10.60
2022-10-28T22:58:23.761Z,10.53
2022-10-28T23:03:26.185Z,10.43
2022-10-28T23:08:28.732Z,10.70
2022-10-28T23:13:31.553Z,12.63
2022-10-28T23:18:34.856Z,10.83
2022-10-28T23:23:37.339Z,12.00
2022-10-28T23:28:40.883Z,11.87
2022-10-28T23:33:44.262Z,11.50
2022-10-28T23:38:46.727Z,12.20
2022-10-28T23:43:49.697Z,11.00
2022-10-28T23:48:52.202Z,10.37
2022-10-28T23:53:54.872Z,11.47
2022-10-28T23:58:57.651Z,11.63
